sensor_id;sensor_type;location;lat;lon;timestamp;pressure;altitude;pressure_sealevel;temperature;humidity
44001;BME280;29660;42.892;24.710;2023-03-20T00:00:56;96978.16;;;1.40;100.00
44001;BME280;29660;42.892;24.710;2023-03-20T00:06:24;97270.19;;;3.21;100.00
44001;BME280;29660;42.892;24.710;2023-03-20T00:11:48;97172.97;;;2.56;100.00
44001;BME280;29660;42.892;24.710;2023-03-20T00:17:16;97256.34;;;3.02;100.00
44001;BME280;29660;42.892;24.710;2023-03-20T00:22:41;97297.50;;;3.15;100.00
44001;BME280;29660;42.892;24.710;2023-03-20T00:28:36;97305.56;;;3.37;100.00
44001;BME280;29660;42.892;24.710;2023-03-20T00:34:12;97301.78;;;3.33;100.00
44001;BME280;29660;42.892;24.710;2023-03-20T00:39:35;97290.00;;;3.24;100.00
44001;BME280;29660;42.892;24.710;2023-03-20T00:44:57;97284.88;;;3.17;100.00
44001;BME280;29660;42.892;24.710;2023-03-20T00:50:25;97242.19;;;2.80;100.00
44001;BME280;29660;42.892;24.710;2023-03-20T00:55:47;96924.72;;;0.57;100.00
44001;BME280;29660;42.892;24.710;2023-03-20T01:01:10;96821.91;;;-0.05;100.00
44001;BME280;29660;42.892;24.710;2023-03-20T01:06:32;97210.03;;;2.31;100.00
44001;BME280;29660;42.892;24.710;2023-03-20T01:11:55;97008.84;;;1.04;100.00
44001;BME280;29660;42.892;24.710;2023-03-20T01:17:19;97026.44;;;1.15;100.00
44001;BME280;29660;42.892;24.710;2023-03-20T01:22:42;97279.53;;;2.77;100.00
44001;BME280;29660;42.892;24.710;2023-03-20T01:28:18;97285.34;;;2.79;100.00
44001;BME280;29660;42.892;24.710;2023-03-20T01:33:40;97224.78;;;2.32;100.00
44001;BME280;29660;42.892;24.710;2023-03-20T01:39:03;97105.34;;;1.62;100.00
44001;BME280;29660;42.892;24.710;2023-03-20T01:44:31;97195.84;;;2.20;100.00
44001;BME280;29660;42.892;24.710;2023-03-20T01:50:20;97253.31;;;2.58;100.00
44001;BME280;29660;42.892;24.710;2023-03-20T01:55:56;97177.88;;;2.05;100.00
44001;BME280;29660;42.892;24.710;2023-03-20T02:01:25;96922.03;;;0.34;100.00
44001;BME280;29660;42.892;24.710;2023-03-20T02:06:48;97158.31;;;1.78;100.00
44001;BME280;29660;42.892;24.710;2023-03-20T02:12:20;96888.09;;;0.09;100.00
44001;BME280;29660;42.892;24.710;2023-03-20T02:17:43;97147.44;;;1.74;100.00
44001;BME280;29660;42.892;24.710;2023-03-20T02:28:50;97239.22;;;2.29;100.00
44001;BME280;29660;42.892;24.710;2023-03-20T02:51:39;97109.34;;;1.11;100.00
44001;BME280;29660;42.892;24.710;2023-03-20T02:57:17;97239.16;;;1.94;100.00
44001;BME280;29660;42.892;24.710;2023-03-20T03:08:10;96972.41;;;0.24;100.00
44001;BME280;29660;42.892;24.710;2023-03-20T03:13:38;97240.84;;;1.88;100.00
44001;BME280;29660;42.892;24.710;2023-03-20T03:19:08;97238.47;;;1.87;100.00
44001;BME280;29660;42.892;24.710;2023-03-20T03:24:37;97237.50;;;1.69;100.00
44001;BME280;29660;42.892;24.710;2023-03-20T03:30:15;96933.03;;;-0.06;100.00
44001;BME280;29660;42.892;24.710;2023-03-20T03:35:39;96926.94;;;-0.18;100.00
44001;BME280;29660;42.892;24.710;2023-03-20T03:51:58;97225.84;;;1.65;100.00
44001;BME280;29660;42.892;24.710;2023-03-20T03:57:44;97206.69;;;1.46;100.00
44001;BME280;29660;42.892;24.710;2023-03-20T04:03:11;97138.84;;;0.95;100.00
44001;BME280;29660;42.892;24.710;2023-03-20T04:08:33;97204.09;;;1.28;100.00
44001;BME280;29660;42.892;24.710;2023-03-20T04:13:55;96944.41;;;-0.31;100.00
44001;BME280;29660;42.892;24.710;2023-03-20T04:19:17;96913.56;;;-0.47;100.00
44001;BME280;29660;42.892;24.710;2023-03-20T04:24:39;97207.81;;;1.20;100.00
44001;BME280;29660;42.892;24.710;2023-03-20T04:30:02;96942.22;;;-0.52;100.00
44001;BME280;29660;42.892;24.710;2023-03-20T04:35:44;97228.41;;;1.23;100.00
44001;BME280;29660;42.892;24.710;2023-03-20T04:41:09;97213.06;;;1.20;100.00
44001;BME280;29660;42.892;24.710;2023-03-20T04:46:32;97227.41;;;1.36;100.00
44001;BME280;29660;42.892;24.710;2023-03-20T04:51:56;96900.47;;;-0.65;100.00
44001;BME280;29660;42.892;24.710;2023-03-20T04:57:30;97073.88;;;0.42;100.00
44001;BME280;29660;42.892;24.710;2023-03-20T05:02:53;97216.41;;;1.28;100.00
44001;BME280;29660;42.892;24.710;2023-03-20T05:08:15;97240.88;;;1.58;100.00
44001;BME280;29660;42.892;24.710;2023-03-20T05:13:39;97177.88;;;1.52;100.00
44001;BME280;29660;42.892;24.710;2023-03-20T05:19:14;97236.22;;;2.02;100.00
44001;BME280;29660;42.892;24.710;2023-03-20T05:24:56;97168.69;;;1.72;100.00
44001;BME280;29660;42.892;24.710;2023-03-20T05:30:45;97180.06;;;1.96;100.00
44001;BME280;29660;42.892;24.710;2023-03-20T05:36:22;97189.56;;;2.21;100.00
44001;BME280;29660;42.892;24.710;2023-03-20T05:42:10;97264.53;;;2.77;100.00
44001;BME280;29660;42.892;24.710;2023-03-20T05:47:58;97234.66;;;2.83;100.00
44001;BME280;29660;42.892;24.710;2023-03-20T05:53:38;97214.00;;;2.92;100.00
44001;BME280;29660;42.892;24.710;2023-03-20T05:59:26;97211.84;;;3.29;100.00
44001;BME280;29660;42.892;24.710;2023-03-20T06:05:07;97249.31;;;3.60;100.00
44001;BME280;29660;42.892;24.710;2023-03-20T06:10:38;96954.16;;;2.12;100.00
44001;BME280;29660;42.892;24.710;2023-03-20T06:16:04;97165.69;;;3.89;100.00
44001;BME280;29660;42.892;24.710;2023-03-20T06:21:26;97231.47;;;4.80;100.00
44001;BME280;29660;42.892;24.710;2023-03-20T06:26:49;96924.31;;;3.31;99.35
44001;BME280;29660;42.892;24.710;2023-03-20T06:32:12;97105.31;;;4.92;97.01
44001;BME280;29660;42.892;24.710;2023-03-20T06:37:36;97190.19;;;5.94;94.20
44001;BME280;29660;42.892;24.710;2023-03-20T06:43:04;96934.00;;;4.84;90.87
44001;BME280;29660;42.892;24.710;2023-03-20T06:48:36;97106.31;;;6.42;87.34
44001;BME280;29660;42.892;24.710;2023-03-20T06:54:01;97214.59;;;7.38;87.53
44001;BME280;29660;42.892;24.710;2023-03-20T06:59:24;96963.19;;;6.26;85.99
44001;BME280;29660;42.892;24.710;2023-03-20T07:04:51;97158.16;;;7.94;77.61
44001;BME280;29660;42.892;24.710;2023-03-20T07:10:14;96932.34;;;6.93;80.20
44001;BME280;29660;42.892;24.710;2023-03-20T07:15:43;97129.94;;;8.59;68.02
44001;BME280;29660;42.892;24.710;2023-03-20T07:21:25;97154.50;;;9.16;60.61
44001;BME280;29660;42.892;24.710;2023-03-20T07:26:48;96934.47;;;8.17;60.57
44001;BME280;29660;42.892;24.710;2023-03-20T07:32:10;96955.28;;;8.65;61.00
44001;BME280;29660;42.892;24.710;2023-03-20T07:37:37;96955.72;;;9.16;57.38
44001;BME280;29660;42.892;24.710;2023-03-20T07:43:00;96916.50;;;9.27;52.30
44001;BME280;29660;42.892;24.710;2023-03-20T07:48:40;97143.22;;;11.14;52.31
44001;BME280;29660;42.892;24.710;2023-03-20T07:54:03;97146.13;;;11.55;53.82
44001;BME280;29660;42.892;24.710;2023-03-20T07:59:25;96969.03;;;10.89;51.48
44001;BME280;29660;42.892;24.710;2023-03-20T08:04:47;97142.78;;;12.20;49.53
44001;BME280;29660;42.892;24.710;2023-03-20T08:10:09;96965.72;;;11.63;49.82
44001;BME280;29660;42.892;24.710;2023-03-20T08:15:31;96951.34;;;12.05;50.10
44001;BME280;29660;42.892;24.710;2023-03-20T08:20:54;97162.66;;;13.79;50.44
44001;BME280;29660;42.892;24.710;2023-03-20T08:26:16;97159.03;;;14.20;46.17
44001;BME280;29660;42.892;24.710;2023-03-20T08:31:39;97158.81;;;14.61;43.77
44001;BME280;29660;42.892;24.710;2023-03-20T08:37:04;97184.97;;;15.18;42.32
44001;BME280;29660;42.892;24.710;2023-03-20T08:42:26;97170.44;;;15.36;38.99
44001;BME280;29660;42.892;24.710;2023-03-20T08:47:48;96946.03;;;14.21;38.48
44001;BME280;29660;42.892;24.710;2023-03-20T08:53:11;97183.06;;;15.93;37.64
44001;BME280;29660;42.892;24.710;2023-03-20T08:58:33;96948.22;;;14.85;39.79
44001;BME280;29660;42.892;24.710;2023-03-20T09:03:55;97079.25;;;15.92;37.88
44001;BME280;29660;42.892;24.710;2023-03-20T09:09:17;97145.38;;;16.66;35.02
44001;BME280;29660;42.892;24.710;2023-03-20T09:14:43;97126.81;;;16.82;34.37
44001;BME280;29660;42.892;24.710;2023-03-20T09:20:05;97085.81;;;16.76;35.92
44001;BME280;29660;42.892;24.710;2023-03-20T09:25:27;96933.00;;;16.05;33.92
44001;BME280;29660;42.892;24.710;2023-03-20T09:30:54;97069.03;;;17.30;33.81
44001;BME280;29660;42.892;24.710;2023-03-20T09:36:16;97146.84;;;18.03;32.10
44001;BME280;29660;42.892;24.710;2023-03-20T09:41:39;96875.06;;;16.58;29.60
44001;BME280;29660;42.892;24.710;2023-03-20T09:47:34;97117.59;;;18.38;28.67
44001;BME280;29660;42.892;24.710;2023-03-20T09:53:15;96882.84;;;17.02;27.61
44001;BME280;29660;42.892;24.710;2023-03-20T09:58:39;97022.06;;;18.18;28.25
44001;BME280;29660;42.892;24.710;2023-03-20T10:04:08;97088.66;;;18.84;27.84
44001;BME280;29660;42.892;24.710;2023-03-20T10:09:30;97096.19;;;19.03;28.34
44001;BME280;29660;42.892;24.710;2023-03-20T10:20:42;97043.47;;;19.09;26.64
44001;BME280;29660;42.892;24.710;2023-03-20T10:26:10;96830.78;;;17.92;26.71
44001;BME280;29660;42.892;24.710;2023-03-20T10:31:43;97074.00;;;19.62;26.36
44001;BME280;29660;42.892;24.710;2023-03-20T10:42:44;96771.97;;;17.98;26.10
44001;BME280;29660;42.892;24.710;2023-03-20T10:48:20;96809.34;;;18.36;26.17
44001;BME280;29660;42.892;24.710;2023-03-20T10:53:48;97030.53;;;19.99;26.30
44001;BME280;29660;42.892;24.710;2023-03-20T11:04:39;97030.47;;;20.43;26.66
44001;BME280;29660;42.892;24.710;2023-03-20T11:15:32;96898.34;;;20.01;25.54
44001;BME280;29660;42.892;24.710;2023-03-20T11:20:56;96785.91;;;19.40;24.22
44001;BME280;29660;42.892;24.710;2023-03-20T11:26:34;96958.28;;;20.66;24.54
44001;BME280;29660;42.892;24.710;2023-03-20T11:32:30;96771.50;;;19.52;24.59
44001;BME280;29660;42.892;24.710;2023-03-20T11:37:54;96738.63;;;19.34;25.00
44001;BME280;29660;42.892;24.710;2023-03-20T11:43:25;96930.69;;;20.61;24.97
44001;BME280;29660;42.892;24.710;2023-03-20T11:49:16;96939.78;;;20.68;24.08
44001;BME280;29660;42.892;24.710;2023-03-20T11:54:47;96700.78;;;19.34;25.38
44001;BME280;29660;42.892;24.710;2023-03-20T12:05:34;96926.16;;;20.84;25.88
44001;BME280;29660;42.892;24.710;2023-03-20T12:16:40;96698.84;;;19.50;25.72
44001;BME280;29660;42.892;24.710;2023-03-20T12:22:32;96956.81;;;21.43;24.52
44001;BME280;29660;42.892;24.710;2023-03-20T12:28:04;96761.50;;;20.03;24.58
44001;BME280;29660;42.892;24.710;2023-03-20T12:34:26;96720.53;;;19.85;25.06
44001;BME280;29660;42.892;24.710;2023-03-20T12:39:37;96868.72;;;20.78;24.63
44001;BME280;29660;42.892;24.710;2023-03-20T12:50:38;96947.75;;;21.35;24.98
44001;BME280;29660;42.892;24.710;2023-03-20T13:01:34;96702.00;;;19.88;26.17
44001;BME280;29660;42.892;24.710;2023-03-20T13:07:01;96831.94;;;20.58;27.22
44001;BME280;29660;42.892;24.710;2023-03-20T13:23:43;96921.97;;;21.06;24.57
44001;BME280;29660;42.892;24.710;2023-03-20T13:40:27;96920.47;;;20.89;27.24
44001;BME280;29660;42.892;24.710;2023-03-20T13:46:09;96678.19;;;19.26;27.34
44001;BME280;29660;42.892;24.710;2023-03-20T13:51:46;96864.66;;;20.49;26.32
44001;BME280;29660;42.892;24.710;2023-03-20T13:57:21;96676.28;;;19.27;25.98
44001;BME280;29660;42.892;24.710;2023-03-20T14:08:32;96681.56;;;19.39;26.77
44001;BME280;29660;42.892;24.710;2023-03-20T14:13:57;96429.31;;;17.82;26.87
44001;BME280;29660;42.892;24.710;2023-03-20T14:19:23;96882.56;;;20.73;26.22
44001;BME280;29660;42.892;24.710;2023-03-20T14:24:52;96656.31;;;19.00;25.68
44001;BME280;29660;42.892;24.710;2023-03-20T14:53:15;96887.16;;;20.02;26.33
44001;BME280;29660;42.892;24.710;2023-03-20T14:59:07;96872.66;;;19.95;26.71
44001;BME280;29660;42.892;24.710;2023-03-20T15:04:38;96869.78;;;19.88;26.59
44001;BME280;29660;42.892;24.710;2023-03-20T15:10:04;96742.81;;;19.00;26.66
44001;BME280;29660;42.892;24.710;2023-03-20T15:15:28;96850.56;;;19.61;27.43
44001;BME280;29660;42.892;24.710;2023-03-20T15:20:55;96822.59;;;19.25;27.46
44001;BME280;29660;42.892;24.710;2023-03-20T15:26:19;96593.75;;;17.66;28.21
44001;BME280;29660;42.892;24.710;2023-03-20T15:31:43;96781.19;;;18.77;28.17
44001;BME280;29660;42.892;24.710;2023-03-20T15:37:14;96808.13;;;18.74;28.64
44001;BME280;29660;42.892;24.710;2023-03-20T15:42:37;96592.53;;;17.11;29.05
44001;BME280;29660;42.892;24.710;2023-03-20T15:48:04;96529.47;;;16.51;29.25
44001;BME280;29660;42.892;24.710;2023-03-20T15:53:35;96687.28;;;17.37;29.70
44001;BME280;29660;42.892;24.710;2023-03-20T15:58:58;96781.44;;;17.79;30.34
44001;BME280;29660;42.892;24.710;2023-03-20T16:04:21;96588.75;;;16.30;30.84
44001;BME280;29660;42.892;24.710;2023-03-20T16:09:44;96834.91;;;17.65;31.45
44001;BME280;29660;42.892;24.710;2023-03-20T16:15:08;96841.50;;;17.43;31.97
44001;BME280;29660;42.892;24.710;2023-03-20T16:20:37;96701.38;;;16.19;32.32
44001;BME280;29660;42.892;24.710;2023-03-20T16:26:04;96885.31;;;17.07;33.93
44001;BME280;29660;42.892;24.710;2023-03-20T16:31:29;96917.53;;;16.82;35.03
44001;BME280;29660;42.892;24.710;2023-03-20T16:36:57;96902.53;;;16.52;35.26
44001;BME280;29660;42.892;24.710;2023-03-20T16:42:23;96657.59;;;14.58;36.62
44001;BME280;29660;42.892;24.710;2023-03-20T16:47:47;96624.53;;;14.02;37.50
44001;BME280;29660;42.892;24.710;2023-03-20T16:53:17;96775.66;;;14.67;38.28
44001;BME280;29660;42.892;24.710;2023-03-20T16:58:44;96859.16;;;14.91;38.63
44001;BME280;29660;42.892;24.710;2023-03-20T17:09:54;96870.00;;;14.34;40.81
44001;BME280;29660;42.892;24.710;2023-03-20T17:15:20;96557.66;;;12.04;40.94
44001;BME280;29660;42.892;24.710;2023-03-20T17:20:42;96675.09;;;12.55;40.90
44001;BME280;29660;42.892;24.710;2023-03-20T17:26:09;96877.88;;;13.65;41.20
44001;BME280;29660;42.892;24.710;2023-03-20T17:31:32;96568.91;;;11.48;41.41
44001;BME280;29660;42.892;24.710;2023-03-20T17:36:54;96744.50;;;12.37;41.74
44001;BME280;29660;42.892;24.710;2023-03-20T17:42:20;96833.53;;;12.74;42.53
44001;BME280;29660;42.892;24.710;2023-03-20T17:47:43;96942.09;;;13.25;43.46
44001;BME280;29660;42.892;24.710;2023-03-20T17:53:07;96737.59;;;11.64;43.85
44001;BME280;29660;42.892;24.710;2023-03-20T17:58:29;96898.63;;;12.47;44.83
44001;BME280;29660;42.892;24.710;2023-03-20T18:03:53;96746.81;;;11.30;45.01
44001;BME280;29660;42.892;24.710;2023-03-20T18:09:15;96949.97;;;12.35;46.18
44001;BME280;29660;42.892;24.710;2023-03-20T18:14:37;96683.97;;;10.36;46.68
44001;BME280;29660;42.892;24.710;2023-03-20T18:19:59;96591.72;;;9.56;47.41
44001;BME280;29660;42.892;24.710;2023-03-20T18:25:23;96680.28;;;9.99;48.36
44001;BME280;29660;42.892;24.710;2023-03-20T18:30:47;96605.69;;;9.29;48.83
44001;BME280;29660;42.892;24.710;2023-03-20T18:36:15;96918.94;;;11.19;49.54
44001;BME280;29660;42.892;24.710;2023-03-20T18:41:38;96916.59;;;10.98;50.70
44001;BME280;29660;42.892;24.710;2023-03-20T18:47:00;96895.00;;;10.62;53.38
44001;BME280;29660;42.892;24.710;2023-03-20T18:52:22;96947.16;;;10.87;52.75
44001;BME280;29660;42.892;24.710;2023-03-20T18:57:45;96897.78;;;10.33;54.45
44001;BME280;29660;42.892;24.710;2023-03-20T19:03:09;96673.91;;;8.77;54.59
44001;BME280;29660;42.892;24.710;2023-03-20T19:08:32;96933.53;;;10.32;53.76
44001;BME280;29660;42.892;24.710;2023-03-20T19:13:58;96910.91;;;10.05;53.50
44001;BME280;29660;42.892;24.710;2023-03-20T19:19:20;96766.44;;;9.04;54.14
44001;BME280;29660;42.892;24.710;2023-03-20T19:24:44;96909.09;;;9.77;54.29
44001;BME280;29660;42.892;24.710;2023-03-20T19:30:22;96937.22;;;9.88;55.39
44001;BME280;29660;42.892;24.710;2023-03-20T19:35:46;96777.91;;;8.70;55.92
44001;BME280;29660;42.892;24.710;2023-03-20T19:41:24;96738.50;;;8.48;55.96
44001;BME280;29660;42.892;24.710;2023-03-20T19:46:48;96712.06;;;8.28;57.82
44001;BME280;29660;42.892;24.710;2023-03-20T19:52:17;96950.47;;;9.69;59.40
44001;BME280;29660;42.892;24.710;2023-03-20T19:57:49;96626.56;;;7.62;58.87
44001;BME280;29660;42.892;24.710;2023-03-20T20:03:20;96628.69;;;7.60;59.39
44001;BME280;29660;42.892;24.710;2023-03-20T20:08:43;96974.09;;;9.76;59.76
44001;BME280;29660;42.892;24.710;2023-03-20T20:14:09;96892.75;;;9.36;58.70
44001;BME280;29660;42.892;24.710;2023-03-20T20:19:35;96918.94;;;9.52;60.22
44001;BME280;29660;42.892;24.710;2023-03-20T20:24:57;96943.69;;;9.53;61.93
44001;BME280;29660;42.892;24.710;2023-03-20T20:30:19;96964.91;;;9.63;59.82
44001;BME280;29660;42.892;24.710;2023-03-20T20:35:42;96655.69;;;7.68;59.67
44001;BME280;29660;42.892;24.710;2023-03-20T20:41:24;96663.63;;;7.73;60.33
44001;BME280;29660;42.892;24.710;2023-03-20T20:46:49;96921.00;;;9.31;61.26
44001;BME280;29660;42.892;24.710;2023-03-20T20:52:11;96701.22;;;7.90;60.56
44001;BME280;29660;42.892;24.710;2023-03-20T20:57:34;96625.09;;;7.41;60.86
44001;BME280;29660;42.892;24.710;2023-03-20T21:02:56;96956.28;;;9.42;61.95
44001;BME280;29660;42.892;24.710;2023-03-20T21:08:18;96661.16;;;7.42;62.05
44001;BME280;29660;42.892;24.710;2023-03-20T21:13:40;96872.53;;;8.71;61.14
44001;BME280;29660;42.892;24.710;2023-03-20T21:19:03;96958.34;;;9.21;61.37
44001;BME280;29660;42.892;24.710;2023-03-20T21:24:25;96945.41;;;9.09;62.95
44001;BME280;29660;42.892;24.710;2023-03-20T21:29:54;96972.84;;;9.05;67.47
44001;BME280;29660;42.892;24.710;2023-03-20T21:35:16;96674.03;;;7.20;66.94
44001;BME280;29660;42.892;24.710;2023-03-20T21:40:38;96615.84;;;6.84;65.93
44001;BME280;29660;42.892;24.710;2023-03-20T21:46:01;96813.66;;;8.09;64.04
44001;BME280;29660;42.892;24.710;2023-03-20T21:51:43;96874.28;;;8.52;64.51
44001;BME280;29660;42.892;24.710;2023-03-20T21:57:26;96666.13;;;6.99;65.21
44001;BME280;29660;42.892;24.710;2023-03-20T22:03:08;96724.06;;;7.36;63.63
44001;BME280;29660;42.892;24.710;2023-03-20T22:08:37;96714.81;;;7.29;68.63
44001;BME280;29660;42.892;24.710;2023-03-20T22:14:20;96625.47;;;6.59;70.21
44001;BME280;29660;42.892;24.710;2023-03-20T22:20:02;96930.63;;;8.49;69.21
44001;BME280;29660;42.892;24.710;2023-03-20T22:25:53;96942.00;;;8.59;68.75
44001;BME280;29660;42.892;24.710;2023-03-20T22:31:36;96637.06;;;6.79;67.11
44001;BME280;29660;42.892;24.710;2023-03-20T22:37:18;96923.38;;;8.65;66.74
44001;BME280;29660;42.892;24.710;2023-03-20T22:43:01;96635.44;;;6.83;66.69
44001;BME280;29660;42.892;24.710;2023-03-20T22:48:43;96630.94;;;6.83;67.28
44001;BME280;29660;42.892;24.710;2023-03-20T22:54:05;96858.72;;;8.25;68.05
44001;BME280;29660;42.892;24.710;2023-03-20T22:59:27;96638.59;;;6.90;68.34
44001;BME280;29660;42.892;24.710;2023-03-20T23:04:49;96931.22;;;8.85;68.15
44001;BME280;29660;42.892;24.710;2023-03-20T23:10:13;96930.44;;;8.84;67.55
44001;BME280;29660;42.892;24.710;2023-03-20T23:15:35;96890.75;;;8.54;69.41
44001;BME280;29660;42.892;24.710;2023-03-20T23:20:58;96678.00;;;7.17;69.68
44001;BME280;29660;42.892;24.710;2023-03-20T23:26:21;96792.50;;;7.99;68.14
44001;BME280;29660;42.892;24.710;2023-03-20T23:31:43;96657.78;;;7.26;67.17
44001;BME280;29660;42.892;24.710;2023-03-20T23:37:05;96612.56;;;7.02;66.88
44001;BME280;29660;42.892;24.710;2023-03-20T23:42:27;96576.09;;;6.84;66.31
44001;BME280;29660;42.892;24.710;2023-03-20T23:47:51;96776.47;;;8.15;67.21
44001;BME280;29660;42.892;24.710;2023-03-20T23:53:14;96604.38;;;7.04;67.30
44001;BME280;29660;42.892;24.710;2023-03-20T23:58:43;96600.38;;;7.01;67.39
